sensor_id;sensor_type;location;lat;lon;timestamp;P1;durP1;ratioP1;P2;durP2;ratioP2
66575;SDS011;53428;47.686;16.584;2022-08-05T00:00:08;4.13;;;3.28;;
66575;SDS011;53428;47.686;16.584;2022-08-05T00:05:12;3.85;;;3.50;;
66575;SDS011;53428;47.686;16.584;2022-08-05T00:10:12;4.60;;;3.75;;
66575;SDS011;53428;47.686;16.584;2022-08-05T00:15:11;10.68;;;3.72;;
66575;SDS011;53428;47.686;16.584;2022-08-05T00:20:10;4.32;;;3.40;;
66575;SDS011;53428;47.686;16.584;2022-08-05T00:25:10;4.70;;;3.50;;
66575;SDS011;53428;47.686;16.584;2022-08-05T00:30:09;4.25;;;2.92;;
66575;SDS011;53428;47.686;16.584;2022-08-05T00:35:09;5.40;;;3.72;;
66575;SDS011;53428;47.686;16.584;2022-08-05T00:40:08;3.50;;;3.20;;
66575;SDS011;53428;47.686;16.584;2022-08-05T00:45:08;9.07;;;3.97;;
66575;SDS011;53428;47.686;16.584;2022-08-05T00:50:08;4.53;;;3.42;;
66575;SDS011;53428;47.686;16.584;2022-08-05T00:55:07;5.28;;;3.90;;
66575;SDS011;53428;47.686;16.584;2022-08-05T01:00:07;5.65;;;4.53;;
66575;SDS011;53428;47.686;16.584;2022-08-05T01:05:07;3.97;;;3.55;;
66575;SDS011;53428;47.686;16.584;2022-08-05T01:10:07;5.75;;;3.47;;
66575;SDS011;53428;47.686;16.584;2022-08-05T01:15:10;4.07;;;3.45;;
66575;SDS011;53428;47.686;16.584;2022-08-05T01:20:22;4.35;;;3.60;;
66575;SDS011;53428;47.686;16.584;2022-08-05T01:25:48;5.72;;;4.18;;
66575;SDS011;53428;47.686;16.584;2022-08-05T01:36:27;3.78;;;3.40;;
66575;SDS011;53428;47.686;16.584;2022-08-05T01:41:31;14.13;;;9.70;;
66575;SDS011;53428;47.686;16.584;2022-08-05T01:46:34;5.30;;;4.63;;
66575;SDS011;53428;47.686;16.584;2022-08-05T01:51:34;5.40;;;4.20;;
66575;SDS011;53428;47.686;16.584;2022-08-05T01:56:36;4.97;;;4.57;;
66575;SDS011;53428;47.686;16.584;2022-08-05T02:01:39;4.25;;;3.85;;
66575;SDS011;53428;47.686;16.584;2022-08-05T02:06:38;4.25;;;3.85;;
66575;SDS011;53428;47.686;16.584;2022-08-05T02:11:46;5.10;;;4.45;;
66575;SDS011;53428;47.686;16.584;2022-08-05T02:17:10;4.70;;;4.22;;
66575;SDS011;53428;47.686;16.584;2022-08-05T02:22:17;5.00;;;4.10;;
66575;SDS011;53428;47.686;16.584;2022-08-05T02:27:19;5.10;;;4.60;;
66575;SDS011;53428;47.686;16.584;2022-08-05T02:37:23;4.05;;;3.65;;
66575;SDS011;53428;47.686;16.584;2022-08-05T02:42:22;9.07;;;4.13;;
66575;SDS011;53428;47.686;16.584;2022-08-05T02:47:22;4.55;;;3.92;;
66575;SDS011;53428;47.686;16.584;2022-08-05T02:52:22;6.47;;;4.35;;
66575;SDS011;53428;47.686;16.584;2022-08-05T02:57:22;4.72;;;4.15;;
66575;SDS011;53428;47.686;16.584;2022-08-05T03:02:24;6.53;;;4.90;;
66575;SDS011;53428;47.686;16.584;2022-08-05T03:07:27;7.53;;;4.72;;
66575;SDS011;53428;47.686;16.584;2022-08-05T03:12:31;5.50;;;4.63;;
66575;SDS011;53428;47.686;16.584;2022-08-05T03:17:31;4.82;;;4.32;;
66575;SDS011;53428;47.686;16.584;2022-08-05T03:22:30;4.60;;;3.90;;
66575;SDS011;53428;47.686;16.584;2022-08-05T03:27:30;6.97;;;4.63;;
66575;SDS011;53428;47.686;16.584;2022-08-05T03:32:30;4.60;;;4.20;;
66575;SDS011;53428;47.686;16.584;2022-08-05T03:37:29;5.28;;;3.95;;
66575;SDS011;53428;47.686;16.584;2022-08-05T03:42:29;6.13;;;4.07;;
66575;SDS011;53428;47.686;16.584;2022-08-05T03:47:28;4.57;;;4.18;;
66575;SDS011;53428;47.686;16.584;2022-08-05T03:52:28;5.35;;;4.50;;
66575;SDS011;53428;47.686;16.584;2022-08-05T03:57:33;5.07;;;4.57;;
66575;SDS011;53428;47.686;16.584;2022-08-05T04:02:34;6.38;;;4.38;;
66575;SDS011;53428;47.686;16.584;2022-08-05T04:07:37;4.63;;;4.20;;
66575;SDS011;53428;47.686;16.584;2022-08-05T04:12:38;5.15;;;4.70;;
66575;SDS011;53428;47.686;16.584;2022-08-05T04:17:37;6.60;;;4.57;;
66575;SDS011;53428;47.686;16.584;2022-08-05T04:22:36;6.38;;;4.60;;
66575;SDS011;53428;47.686;16.584;2022-08-05T04:27:35;5.20;;;4.72;;
66575;SDS011;53428;47.686;16.584;2022-08-05T04:32:35;6.45;;;4.63;;
66575;SDS011;53428;47.686;16.584;2022-08-05T04:37:34;6.75;;;4.75;;
66575;SDS011;53428;47.686;16.584;2022-08-05T04:42:33;5.68;;;3.83;;
66575;SDS011;53428;47.686;16.584;2022-08-05T04:47:32;5.22;;;4.60;;
66575;SDS011;53428;47.686;16.584;2022-08-05T04:52:32;4.18;;;3.78;;
66575;SDS011;53428;47.686;16.584;2022-08-05T04:57:31;6.15;;;3.70;;
66575;SDS011;53428;47.686;16.584;2022-08-05T05:02:30;10.65;;;3.90;;
66575;SDS011;53428;47.686;16.584;2022-08-05T05:07:30;6.22;;;3.55;;
66575;SDS011;53428;47.686;16.584;2022-08-05T05:12:29;12.00;;;4.38;;
66575;SDS011;53428;47.686;16.584;2022-08-05T05:17:35;10.90;;;4.00;;
66575;SDS011;53428;47.686;16.584;2022-08-05T05:22:39;3.90;;;3.50;;
66575;SDS011;53428;47.686;16.584;2022-08-05T05:27:38;5.47;;;3.88;;
66575;SDS011;53428;47.686;16.584;2022-08-05T05:32:38;11.23;;;4.68;;
66575;SDS011;53428;47.686;16.584;2022-08-05T05:37:49;4.68;;;3.95;;
66575;SDS011;53428;47.686;16.584;2022-08-05T05:42:53;6.38;;;3.80;;
66575;SDS011;53428;47.686;16.584;2022-08-05T05:47:52;9.82;;;3.58;;
66575;SDS011;53428;47.686;16.584;2022-08-05T05:52:52;7.78;;;3.38;;
66575;SDS011;53428;47.686;16.584;2022-08-05T05:57:52;5.50;;;3.28;;
66575;SDS011;53428;47.686;16.584;2022-08-05T06:02:51;4.65;;;3.92;;
66575;SDS011;53428;47.686;16.584;2022-08-05T06:07:50;12.00;;;3.95;;
66575;SDS011;53428;47.686;16.584;2022-08-05T06:12:49;5.43;;;4.00;;
66575;SDS011;53428;47.686;16.584;2022-08-05T06:17:49;7.65;;;3.78;;
66575;SDS011;53428;47.686;16.584;2022-08-05T06:22:48;14.70;;;3.35;;
66575;SDS011;53428;47.686;16.584;2022-08-05T06:27:47;3.75;;;3.40;;
66575;SDS011;53428;47.686;16.584;2022-08-05T06:32:47;6.72;;;3.38;;
66575;SDS011;53428;47.686;16.584;2022-08-05T06:37:46;16.48;;;3.78;;
66575;SDS011;53428;47.686;16.584;2022-08-05T06:42:45;7.03;;;3.20;;
66575;SDS011;53428;47.686;16.584;2022-08-05T06:47:45;7.78;;;3.63;;
66575;SDS011;53428;47.686;16.584;2022-08-05T06:52:45;5.45;;;3.53;;
66575;SDS011;53428;47.686;16.584;2022-08-05T06:57:44;9.48;;;4.13;;
66575;SDS011;53428;47.686;16.584;2022-08-05T07:02:45;5.85;;;4.50;;
66575;SDS011;53428;47.686;16.584;2022-08-05T07:07:45;9.57;;;3.60;;
66575;SDS011;53428;47.686;16.584;2022-08-05T07:12:46;9.00;;;3.85;;
66575;SDS011;53428;47.686;16.584;2022-08-05T07:18:04;6.18;;;4.00;;
66575;SDS011;53428;47.686;16.584;2022-08-05T07:23:04;5.10;;;3.40;;
66575;SDS011;53428;47.686;16.584;2022-08-05T07:28:03;5.90;;;3.10;;
66575;SDS011;53428;47.686;16.584;2022-08-05T07:33:03;4.10;;;3.42;;
66575;SDS011;53428;47.686;16.584;2022-08-05T07:38:08;3.88;;;3.17;;
66575;SDS011;53428;47.686;16.584;2022-08-05T07:43:07;7.88;;;3.55;;
66575;SDS011;53428;47.686;16.584;2022-08-05T07:48:06;11.63;;;4.00;;
66575;SDS011;53428;47.686;16.584;2022-08-05T07:53:06;5.35;;;3.38;;
66575;SDS011;53428;47.686;16.584;2022-08-05T07:58:05;4.10;;;3.45;;
66575;SDS011;53428;47.686;16.584;2022-08-05T08:03:08;4.13;;;3.10;;
66575;SDS011;53428;47.686;16.584;2022-08-05T08:08:11;5.95;;;3.28;;
66575;SDS011;53428;47.686;16.584;2022-08-05T08:13:11;4.25;;;3.00;;
66575;SDS011;53428;47.686;16.584;2022-08-05T08:18:11;4.95;;;2.80;;
66575;SDS011;53428;47.686;16.584;2022-08-05T08:23:10;3.35;;;2.30;;
66575;SDS011;53428;47.686;16.584;2022-08-05T08:28:10;4.43;;;2.75;;
66575;SDS011;53428;47.686;16.584;2022-08-05T08:33:09;3.28;;;2.58;;
66575;SDS011;53428;47.686;16.584;2022-08-05T08:38:09;6.22;;;2.20;;
66575;SDS011;53428;47.686;16.584;2022-08-05T08:43:11;3.28;;;2.90;;
66575;SDS011;53428;47.686;16.584;2022-08-05T08:48:12;3.25;;;2.38;;
66575;SDS011;53428;47.686;16.584;2022-08-05T08:53:14;2.58;;;2.22;;
66575;SDS011;53428;47.686;16.584;2022-08-05T08:58:14;3.75;;;2.55;;
66575;SDS011;53428;47.686;16.584;2022-08-05T09:03:15;4.28;;;2.35;;
66575;SDS011;53428;47.686;16.584;2022-08-05T09:08:14;3.13;;;2.50;;
66575;SDS011;53428;47.686;16.584;2022-08-05T09:13:15;2.33;;;2.13;;
66575;SDS011;53428;47.686;16.584;2022-08-05T09:18:14;5.28;;;2.42;;
66575;SDS011;53428;47.686;16.584;2022-08-05T09:23:14;2.95;;;2.20;;
66575;SDS011;53428;47.686;16.584;2022-08-05T09:28:15;2.35;;;2.15;;
66575;SDS011;53428;47.686;16.584;2022-08-05T09:33:16;4.38;;;2.05;;
66575;SDS011;53428;47.686;16.584;2022-08-05T09:38:16;4.80;;;2.50;;
66575;SDS011;53428;47.686;16.584;2022-08-05T09:43:28;4.45;;;2.33;;
66575;SDS011;53428;47.686;16.584;2022-08-05T09:53:48;5.15;;;2.53;;
66575;SDS011;53428;47.686;16.584;2022-08-05T09:59:22;7.55;;;2.20;;
66575;SDS011;53428;47.686;16.584;2022-08-05T10:04:15;3.92;;;2.15;;
66575;SDS011;53428;47.686;16.584;2022-08-05T10:09:15;3.42;;;2.42;;
66575;SDS011;53428;47.686;16.584;2022-08-05T10:14:28;5.47;;;1.95;;
66575;SDS011;53428;47.686;16.584;2022-08-05T10:19:29;2.38;;;2.20;;
66575;SDS011;53428;47.686;16.584;2022-08-05T10:29:30;2.60;;;2.33;;
66575;SDS011;53428;47.686;16.584;2022-08-05T10:34:38;2.40;;;2.20;;
66575;SDS011;53428;47.686;16.584;2022-08-05T10:39:37;3.60;;;2.08;;
66575;SDS011;53428;47.686;16.584;2022-08-05T10:44:42;3.63;;;2.00;;
66575;SDS011;53428;47.686;16.584;2022-08-05T10:55:03;3.00;;;2.10;;
66575;SDS011;53428;47.686;16.584;2022-08-05T11:00:18;2.58;;;2.05;;
66575;SDS011;53428;47.686;16.584;2022-08-05T11:05:22;2.63;;;2.42;;
66575;SDS011;53428;47.686;16.584;2022-08-05T11:10:24;3.05;;;2.13;;
66575;SDS011;53428;47.686;16.584;2022-08-05T11:15:26;2.80;;;2.28;;
66575;SDS011;53428;47.686;16.584;2022-08-05T11:20:49;2.50;;;2.30;;
66575;SDS011;53428;47.686;16.584;2022-08-05T11:31:28;3.22;;;2.38;;
66575;SDS011;53428;47.686;16.584;2022-08-05T11:36:42;2.30;;;2.08;;
66575;SDS011;53428;47.686;16.584;2022-08-05T11:41:51;2.08;;;1.98;;
66575;SDS011;53428;47.686;16.584;2022-08-05T11:46:51;2.10;;;2.00;;
66575;SDS011;53428;47.686;16.584;2022-08-05T11:51:51;2.05;;;1.67;;
66575;SDS011;53428;47.686;16.584;2022-08-05T11:56:55;2.47;;;1.98;;
66575;SDS011;53428;47.686;16.584;2022-08-05T12:01:59;2.67;;;2.38;;
66575;SDS011;53428;47.686;16.584;2022-08-05T12:07:06;7.22;;;2.20;;
66575;SDS011;53428;47.686;16.584;2022-08-05T12:12:07;2.50;;;1.83;;
66575;SDS011;53428;47.686;16.584;2022-08-05T12:17:08;6.00;;;2.00;;
66575;SDS011;53428;47.686;16.584;2022-08-05T12:22:13;3.40;;;1.83;;
66575;SDS011;53428;47.686;16.584;2022-08-05T12:27:18;3.00;;;1.90;;
66575;SDS011;53428;47.686;16.584;2022-08-05T12:32:22;2.30;;;2.17;;
66575;SDS011;53428;47.686;16.584;2022-08-05T12:37:22;3.35;;;2.00;;
66575;SDS011;53428;47.686;16.584;2022-08-05T12:42:22;2.03;;;1.92;;
66575;SDS011;53428;47.686;16.584;2022-08-05T12:47:25;2.83;;;1.80;;
66575;SDS011;53428;47.686;16.584;2022-08-05T12:52:25;2.55;;;2.20;;
66575;SDS011;53428;47.686;16.584;2022-08-05T12:57:25;8.88;;;2.33;;
66575;SDS011;53428;47.686;16.584;2022-08-05T13:02:34;7.50;;;2.15;;
66575;SDS011;53428;47.686;16.584;2022-08-05T13:07:34;8.77;;;2.17;;
66575;SDS011;53428;47.686;16.584;2022-08-05T13:12:41;2.20;;;2.00;;
66575;SDS011;53428;47.686;16.584;2022-08-05T13:17:41;1.77;;;1.55;;
66575;SDS011;53428;47.686;16.584;2022-08-05T13:22:52;6.13;;;2.05;;
66575;SDS011;53428;47.686;16.584;2022-08-05T13:27:54;1.92;;;1.80;;
66575;SDS011;53428;47.686;16.584;2022-08-05T13:32:55;2.35;;;2.15;;
66575;SDS011;53428;47.686;16.584;2022-08-05T13:37:54;7.82;;;2.17;;
66575;SDS011;53428;47.686;16.584;2022-08-05T13:42:53;11.88;;;2.20;;
66575;SDS011;53428;47.686;16.584;2022-08-05T13:47:53;6.40;;;2.20;;
66575;SDS011;53428;47.686;16.584;2022-08-05T13:52:52;2.38;;;2.03;;
66575;SDS011;53428;47.686;16.584;2022-08-05T13:57:51;6.85;;;2.25;;
66575;SDS011;53428;47.686;16.584;2022-08-05T14:02:51;2.60;;;1.92;;
66575;SDS011;53428;47.686;16.584;2022-08-05T14:07:50;2.30;;;2.10;;
66575;SDS011;53428;47.686;16.584;2022-08-05T14:12:52;2.95;;;1.77;;
66575;SDS011;53428;47.686;16.584;2022-08-05T14:17:51;2.80;;;2.17;;
66575;SDS011;53428;47.686;16.584;2022-08-05T14:22:50;2.20;;;2.00;;
66575;SDS011;53428;47.686;16.584;2022-08-05T14:32:49;4.60;;;2.63;;
66575;SDS011;53428;47.686;16.584;2022-08-05T14:37:48;6.97;;;2.42;;
66575;SDS011;53428;47.686;16.584;2022-08-05T14:42:48;3.70;;;2.33;;
66575;SDS011;53428;47.686;16.584;2022-08-05T14:47:47;5.97;;;2.05;;
66575;SDS011;53428;47.686;16.584;2022-08-05T14:52:46;2.47;;;2.38;;
66575;SDS011;53428;47.686;16.584;2022-08-05T14:57:45;3.08;;;2.13;;
66575;SDS011;53428;47.686;16.584;2022-08-05T15:02:44;2.45;;;2.25;;
66575;SDS011;53428;47.686;16.584;2022-08-05T15:07:44;3.83;;;1.83;;
66575;SDS011;53428;47.686;16.584;2022-08-05T15:12:44;2.15;;;1.95;;
66575;SDS011;53428;47.686;16.584;2022-08-05T15:22:42;2.22;;;2.10;;
66575;SDS011;53428;47.686;16.584;2022-08-05T15:27:42;2.38;;;1.80;;
66575;SDS011;53428;47.686;16.584;2022-08-05T15:32:41;2.63;;;1.85;;
66575;SDS011;53428;47.686;16.584;2022-08-05T15:37:41;8.00;;;2.60;;
66575;SDS011;53428;47.686;16.584;2022-08-05T15:42:40;5.80;;;2.13;;
66575;SDS011;53428;47.686;16.584;2022-08-05T15:47:40;4.30;;;2.33;;
66575;SDS011;53428;47.686;16.584;2022-08-05T15:52:40;5.45;;;2.08;;
66575;SDS011;53428;47.686;16.584;2022-08-05T15:57:39;2.03;;;1.92;;
66575;SDS011;53428;47.686;16.584;2022-08-05T16:02:39;7.20;;;2.45;;
66575;SDS011;53428;47.686;16.584;2022-08-05T16:07:39;6.07;;;2.50;;
66575;SDS011;53428;47.686;16.584;2022-08-05T16:12:38;7.22;;;2.35;;
66575;SDS011;53428;47.686;16.584;2022-08-05T16:17:37;2.63;;;2.42;;
66575;SDS011;53428;47.686;16.584;2022-08-05T16:22:37;4.10;;;2.20;;
66575;SDS011;53428;47.686;16.584;2022-08-05T16:27:37;3.08;;;2.63;;
66575;SDS011;53428;47.686;16.584;2022-08-05T16:32:37;3.42;;;2.40;;
66575;SDS011;53428;47.686;16.584;2022-08-05T16:37:36;2.33;;;2.13;;
66575;SDS011;53428;47.686;16.584;2022-08-05T16:42:38;6.30;;;3.80;;
66575;SDS011;53428;47.686;16.584;2022-08-05T16:47:37;4.28;;;2.72;;
66575;SDS011;53428;47.686;16.584;2022-08-05T16:52:36;3.85;;;2.38;;
66575;SDS011;53428;47.686;16.584;2022-08-05T16:57:36;3.72;;;2.45;;
66575;SDS011;53428;47.686;16.584;2022-08-05T17:02:35;5.85;;;2.45;;
66575;SDS011;53428;47.686;16.584;2022-08-05T17:07:35;4.45;;;3.22;;
66575;SDS011;53428;47.686;16.584;2022-08-05T17:12:34;6.35;;;2.95;;
66575;SDS011;53428;47.686;16.584;2022-08-05T17:17:33;3.97;;;2.75;;
66575;SDS011;53428;47.686;16.584;2022-08-05T17:22:33;2.58;;;2.38;;
66575;SDS011;53428;47.686;16.584;2022-08-05T17:27:32;3.88;;;2.58;;
66575;SDS011;53428;47.686;16.584;2022-08-05T17:32:32;4.05;;;3.10;;
66575;SDS011;53428;47.686;16.584;2022-08-05T17:37:31;6.22;;;3.03;;
66575;SDS011;53428;47.686;16.584;2022-08-05T17:42:30;8.30;;;3.42;;
66575;SDS011;53428;47.686;16.584;2022-08-05T17:47:30;3.95;;;2.95;;
66575;SDS011;53428;47.686;16.584;2022-08-05T17:52:29;6.70;;;3.50;;
66575;SDS011;53428;47.686;16.584;2022-08-05T17:57:29;8.18;;;5.70;;
66575;SDS011;53428;47.686;16.584;2022-08-05T18:02:28;9.18;;;3.55;;
66575;SDS011;53428;47.686;16.584;2022-08-05T18:07:28;3.13;;;2.92;;
66575;SDS011;53428;47.686;16.584;2022-08-05T18:12:28;8.32;;;3.28;;
66575;SDS011;53428;47.686;16.584;2022-08-05T18:17:30;9.82;;;3.75;;
66575;SDS011;53428;47.686;16.584;2022-08-05T18:22:30;8.32;;;3.47;;
66575;SDS011;53428;47.686;16.584;2022-08-05T18:27:30;5.57;;;3.67;;
66575;SDS011;53428;47.686;16.584;2022-08-05T18:32:29;5.25;;;3.63;;
66575;SDS011;53428;47.686;16.584;2022-08-05T18:37:28;7.22;;;4.18;;
66575;SDS011;53428;47.686;16.584;2022-08-05T18:42:27;7.38;;;4.60;;
66575;SDS011;53428;47.686;16.584;2022-08-05T18:47:27;6.38;;;4.07;;
66575;SDS011;53428;47.686;16.584;2022-08-05T18:52:26;9.40;;;4.65;;
66575;SDS011;53428;47.686;16.584;2022-08-05T18:57:33;11.88;;;4.35;;
66575;SDS011;53428;47.686;16.584;2022-08-05T19:02:33;6.07;;;3.65;;
66575;SDS011;53428;47.686;16.584;2022-08-05T19:07:32;4.53;;;4.13;;
66575;SDS011;53428;47.686;16.584;2022-08-05T19:12:32;9.25;;;4.13;;
66575;SDS011;53428;47.686;16.584;2022-08-05T19:17:33;7.72;;;3.78;;
66575;SDS011;53428;47.686;16.584;2022-08-05T19:22:33;5.10;;;3.58;;
66575;SDS011;53428;47.686;16.584;2022-08-05T19:27:32;4.70;;;4.22;;
66575;SDS011;53428;47.686;16.584;2022-08-05T19:32:32;9.18;;;4.18;;
66575;SDS011;53428;47.686;16.584;2022-08-05T19:37:32;4.00;;;3.38;;
66575;SDS011;53428;47.686;16.584;2022-08-05T19:42:33;7.07;;;3.70;;
66575;SDS011;53428;47.686;16.584;2022-08-05T19:47:33;6.72;;;4.13;;
66575;SDS011;53428;47.686;16.584;2022-08-05T19:52:33;8.32;;;4.00;;
66575;SDS011;53428;47.686;16.584;2022-08-05T19:57:32;5.25;;;3.80;;
66575;SDS011;53428;47.686;16.584;2022-08-05T20:02:32;5.28;;;3.45;;
66575;SDS011;53428;47.686;16.584;2022-08-05T20:07:31;5.95;;;4.00;;
66575;SDS011;53428;47.686;16.584;2022-08-05T20:12:30;4.05;;;3.53;;
66575;SDS011;53428;47.686;16.584;2022-08-05T20:17:30;6.20;;;3.67;;
66575;SDS011;53428;47.686;16.584;2022-08-05T20:22:29;9.65;;;3.90;;
66575;SDS011;53428;47.686;16.584;2022-08-05T20:27:28;7.35;;;3.90;;
66575;SDS011;53428;47.686;16.584;2022-08-05T20:32:28;10.65;;;4.80;;
66575;SDS011;53428;47.686;16.584;2022-08-05T20:37:27;6.68;;;3.97;;
66575;SDS011;53428;47.686;16.584;2022-08-05T20:42:26;6.63;;;4.18;;
66575;SDS011;53428;47.686;16.584;2022-08-05T20:47:25;5.10;;;4.50;;
66575;SDS011;53428;47.686;16.584;2022-08-05T20:52:25;8.48;;;5.07;;
66575;SDS011;53428;47.686;16.584;2022-08-05T20:57:24;4.63;;;3.97;;
66575;SDS011;53428;47.686;16.584;2022-08-05T21:02:23;8.48;;;4.15;;
66575;SDS011;53428;47.686;16.584;2022-08-05T21:07:22;4.97;;;3.95;;
66575;SDS011;53428;47.686;16.584;2022-08-05T21:12:22;7.03;;;4.22;;
66575;SDS011;53428;47.686;16.584;2022-08-05T21:17:21;8.02;;;4.70;;
66575;SDS011;53428;47.686;16.584;2022-08-05T21:22:23;6.40;;;4.63;;
66575;SDS011;53428;47.686;16.584;2022-08-05T21:27:22;9.25;;;5.03;;
66575;SDS011;53428;47.686;16.584;2022-08-05T21:32:23;5.03;;;4.40;;
66575;SDS011;53428;47.686;16.584;2022-08-05T21:37:23;4.63;;;4.22;;
66575;SDS011;53428;47.686;16.584;2022-08-05T21:42:22;8.02;;;4.35;;
66575;SDS011;53428;47.686;16.584;2022-08-05T21:47:22;4.38;;;3.88;;
66575;SDS011;53428;47.686;16.584;2022-08-05T21:52:23;4.63;;;4.22;;
66575;SDS011;53428;47.686;16.584;2022-08-05T21:57:22;4.72;;;4.13;;
66575;SDS011;53428;47.686;16.584;2022-08-05T22:02:22;4.22;;;3.70;;
66575;SDS011;53428;47.686;16.584;2022-08-05T22:07:21;8.60;;;4.18;;
66575;SDS011;53428;47.686;16.584;2022-08-05T22:12:20;7.47;;;4.43;;
66575;SDS011;53428;47.686;16.584;2022-08-05T22:17:19;4.32;;;3.83;;
66575;SDS011;53428;47.686;16.584;2022-08-05T22:22:19;6.32;;;3.65;;
66575;SDS011;53428;47.686;16.584;2022-08-05T22:27:18;4.85;;;4.20;;
66575;SDS011;53428;47.686;16.584;2022-08-05T22:32:36;4.32;;;3.92;;
66575;SDS011;53428;47.686;16.584;2022-08-05T22:37:35;9.43;;;4.28;;
66575;SDS011;53428;47.686;16.584;2022-08-05T22:42:35;4.63;;;4.22;;
66575;SDS011;53428;47.686;16.584;2022-08-05T22:47:35;4.80;;;4.30;;
66575;SDS011;53428;47.686;16.584;2022-08-05T22:52:34;8.68;;;4.78;;
66575;SDS011;53428;47.686;16.584;2022-08-05T22:57:34;5.32;;;4.75;;
66575;SDS011;53428;47.686;16.584;2022-08-05T23:02:33;4.65;;;3.88;;
66575;SDS011;53428;47.686;16.584;2022-08-05T23:07:34;4.88;;;4.43;;
66575;SDS011;53428;47.686;16.584;2022-08-05T23:12:33;7.22;;;4.50;;
66575;SDS011;53428;47.686;16.584;2022-08-05T23:17:32;7.22;;;3.80;;
66575;SDS011;53428;47.686;16.584;2022-08-05T23:22:32;7.15;;;4.55;;
66575;SDS011;53428;47.686;16.584;2022-08-05T23:27:31;7.40;;;4.00;;
66575;SDS011;53428;47.686;16.584;2022-08-05T23:32:30;7.25;;;4.40;;
66575;SDS011;53428;47.686;16.584;2022-08-05T23:37:30;5.55;;;4.22;;
66575;SDS011;53428;47.686;16.584;2022-08-05T23:42:29;4.75;;;4.25;;
66575;SDS011;53428;47.686;16.584;2022-08-05T23:47:28;6.85;;;5.25;;
66575;SDS011;53428;47.686;16.584;2022-08-05T23:52:27;9.85;;;5.13;;
66575;SDS011;53428;47.686;16.584;2022-08-05T23:57:27;5.00;;;4.32;;
